createdAt,value
2023-05-15T00:01:01.833Z,3.20
2023-05-15T00:03:29.348Z,3.08
2023-05-15T00:05:56.685Z,3.28
2023-05-15T00:08:23.872Z,3.33
2023-05-15T00:11:00.854Z,3.47
2023-05-15T00:13:29.036Z,3.45
2023-05-15T00:15:56.227Z,4.78
2023-05-15T00:18:23.427Z,3.45
2023-05-15T00:20:50.873Z,3.78
2023-05-15T00:23:18.072Z,3.50
2023-05-15T00:25:45.259Z,3.30
2023-05-15T00:28:13.777Z,2.88
2023-05-15T00:30:40.986Z,3.50
2023-05-15T00:33:08.502Z,2.97
2023-05-15T00:35:35.696Z,3.10
2023-05-15T00:38:02.899Z,3.53
2023-05-15T00:40:30.185Z,3.03
2023-05-15T00:42:57.431Z,3.40
2023-05-15T00:45:26.233Z,3.50
2023-05-15T00:47:54.089Z,3.28
2023-05-15T00:50:21.405Z,3.47
2023-05-15T00:52:48.584Z,3.97
2023-05-15T00:55:15.776Z,3.15
2023-05-15T00:57:43.294Z,3.45
2023-05-15T01:00:11.154Z,3.40
2023-05-15T01:02:39.784Z,3.22
2023-05-15T01:05:08.948Z,3.35
2023-05-15T01:07:36.452Z,3.42
2023-05-15T01:10:04.249Z,3.30
2023-05-15T01:12:31.508Z,3.30
2023-05-15T01:14:58.719Z,3.08
2023-05-15T01:17:25.919Z,5.35
2023-05-15T01:19:54.652Z,3.60
2023-05-15T01:22:43.189Z,3.30
2023-05-15T01:25:28.855Z,3.60
2023-05-15T01:27:57.671Z,3.40
2023-05-15T01:30:26.026Z,3.22
2023-05-15T01:32:54.472Z,3.22
2023-05-15T01:35:22.611Z,3.90
2023-05-15T01:37:50.867Z,3.70
2023-05-15T01:40:18.542Z,3.67
2023-05-15T01:42:52.178Z,3.60
2023-05-15T01:45:20.710Z,3.40
2023-05-15T01:47:48.396Z,5.65
2023-05-15T01:50:15.963Z,3.70
2023-05-15T01:52:43.855Z,3.50
2023-05-15T01:55:11.106Z,3.60
2023-05-15T01:57:38.331Z,3.80
2023-05-15T02:00:06.041Z,3.05
2023-05-15T02:02:34.653Z,3.70
2023-05-15T02:05:01.907Z,6.25
2023-05-15T02:07:29.141Z,5.25
2023-05-15T02:09:56.363Z,3.25
2023-05-15T02:12:23.605Z,3.53
2023-05-15T02:14:51.017Z,3.42
2023-05-15T02:17:18.259Z,3.10
2023-05-15T02:19:46.799Z,3.55
2023-05-15T02:22:13.991Z,3.85
2023-05-15T02:24:41.205Z,3.40
2023-05-15T02:27:09.999Z,3.97
2023-05-15T02:29:37.916Z,3.33
2023-05-15T02:32:07.066Z,3.38
2023-05-15T02:34:35.975Z,4.40
2023-05-15T02:37:04.617Z,3.90
2023-05-15T02:39:31.965Z,3.33
2023-05-15T02:41:59.171Z,3.25
2023-05-15T02:44:26.409Z,3.55
2023-05-15T02:46:53.663Z,3.50
2023-05-15T02:49:20.928Z,3.42
2023-05-15T02:51:48.144Z,3.33
2023-05-15T02:54:16.681Z,3.67
2023-05-15T02:56:43.895Z,3.13
2023-05-15T02:59:11.102Z,3.28
2023-05-15T03:01:38.625Z,3.30
2023-05-15T03:04:05.981Z,3.33
2023-05-15T03:06:33.270Z,3.25
2023-05-15T03:09:00.555Z,3.25
2023-05-15T03:11:29.085Z,3.10
2023-05-15T03:13:56.280Z,3.40
2023-05-15T03:16:23.768Z,3.50
2023-05-15T03:18:51.112Z,5.50
2023-05-15T03:21:18.970Z,3.63
2023-05-15T03:23:46.199Z,3.22
2023-05-15T03:26:13.398Z,3.42
2023-05-15T03:28:42.430Z,3.45
2023-05-15T03:31:09.883Z,3.55
2023-05-15T03:33:37.167Z,4.07
2023-05-15T03:36:04.624Z,3.60
2023-05-15T03:38:31.812Z,3.83
2023-05-15T03:40:59.258Z,4.22
2023-05-15T03:43:26.513Z,3.20
2023-05-15T03:45:55.573Z,3.70
2023-05-15T03:48:22.832Z,3.58
2023-05-15T03:50:50.034Z,4.85
2023-05-15T03:53:17.241Z,3.75
2023-05-15T03:55:44.486Z,3.97
2023-05-15T03:58:11.692Z,3.33
2023-05-15T04:00:38.896Z,3.47
2023-05-15T04:03:07.533Z,3.70
2023-05-15T04:05:34.977Z,3.53
2023-05-15T04:08:02.234Z,3.60
2023-05-15T04:10:29.638Z,3.92
2023-05-15T04:12:56.826Z,3.40
2023-05-15T04:15:24.918Z,3.30
2023-05-15T04:17:53.035Z,3.78
2023-05-15T04:20:21.945Z,3.67
2023-05-15T04:22:49.180Z,3.92
2023-05-15T04:25:16.472Z,3.50
2023-05-15T04:27:44.248Z,5.32
2023-05-15T04:30:12.567Z,3.63
2023-05-15T04:32:39.968Z,4.22
2023-05-15T04:35:09.951Z,4.28
2023-05-15T04:37:38.530Z,3.90
2023-05-15T04:40:07.359Z,3.78
2023-05-15T04:42:34.573Z,3.53
2023-05-15T04:45:02.250Z,3.90
2023-05-15T04:47:29.597Z,3.83
2023-05-15T04:49:56.857Z,4.28
2023-05-15T04:52:24.101Z,3.80
2023-05-15T04:54:55.452Z,4.05
2023-05-15T04:57:22.995Z,3.70
2023-05-15T04:59:50.201Z,4.20
2023-05-15T05:02:17.407Z,4.15
2023-05-15T05:04:45.253Z,6.20
2023-05-15T05:07:12.543Z,4.43
2023-05-15T05:09:39.874Z,4.07
2023-05-15T05:12:09.059Z,3.75
2023-05-15T05:14:36.407Z,4.07
2023-05-15T05:17:03.716Z,5.72
2023-05-15T05:19:30.984Z,4.40
2023-05-15T05:22:01.261Z,4.35
2023-05-15T05:24:28.495Z,4.22
2023-05-15T05:26:57.993Z,4.13
2023-05-15T05:29:26.572Z,4.05
2023-05-15T05:31:53.874Z,6.78
2023-05-15T05:34:21.576Z,5.60
2023-05-15T05:36:48.808Z,8.55
2023-05-15T05:39:19.917Z,7.50
2023-05-15T05:41:47.124Z,8.40
2023-05-15T05:44:14.368Z,10.23
2023-05-15T05:46:42.982Z,6.60
2023-05-15T05:49:10.212Z,8.52
2023-05-15T05:51:38.405Z,9.43
2023-05-15T05:54:05.681Z,23.70
2023-05-15T05:56:32.863Z,7.78
2023-05-15T05:59:01.786Z,14.43
2023-05-15T06:01:29.030Z,19.25
2023-05-15T06:03:57.813Z,21.63
2023-05-15T06:06:25.185Z,18.98
2023-05-15T06:08:54.819Z,23.75
2023-05-15T06:11:25.370Z,20.65
2023-05-15T06:13:52.925Z,18.45
2023-05-15T06:16:20.248Z,21.52
2023-05-15T06:18:47.561Z,22.35
2023-05-15T06:21:16.245Z,26.98
2023-05-15T06:23:43.430Z,28.85
2023-05-15T06:26:10.649Z,26.45
2023-05-15T06:28:37.841Z,20.70
2023-05-15T06:31:05.269Z,21.13
2023-05-15T06:33:32.500Z,23.88
2023-05-15T06:35:59.746Z,28.45
2023-05-15T06:38:28.234Z,26.08
2023-05-15T06:40:55.811Z,33.05
2023-05-15T06:43:23.002Z,26.15
2023-05-15T06:45:50.274Z,29.42
2023-05-15T06:48:17.535Z,25.85
2023-05-15T06:50:44.838Z,28.15
2023-05-15T06:53:14.395Z,29.15
2023-05-15T06:55:43.187Z,21.33
2023-05-15T06:58:10.395Z,23.67
2023-05-15T07:00:37.599Z,22.50
2023-05-15T07:03:04.870Z,24.55
2023-05-15T07:05:32.125Z,26.25
2023-05-15T07:07:59.336Z,21.55
2023-05-15T07:10:26.926Z,23.65
2023-05-15T07:12:55.737Z,22.40
2023-05-15T07:15:23.006Z,14.50
2023-05-15T07:17:50.335Z,20.90
2023-05-15T07:20:17.633Z,16.83
2023-05-15T07:22:55.658Z,21.00
2023-05-15T07:25:24.467Z,17.97
2023-05-15T07:27:52.122Z,20.05
2023-05-15T07:30:20.677Z,20.30
2023-05-15T07:32:47.968Z,16.00
2023-05-15T07:35:15.262Z,22.45
2023-05-15T07:37:42.564Z,16.05
2023-05-15T07:40:10.102Z,20.00
2023-05-15T07:42:37.476Z,17.45
2023-05-15T07:45:04.967Z,13.43
2023-05-15T07:47:33.593Z,17.08
2023-05-15T07:50:00.876Z,14.80
2023-05-15T07:52:28.108Z,13.75
2023-05-15T07:54:55.360Z,12.20
2023-05-15T07:57:22.556Z,13.68
2023-05-15T07:59:49.760Z,14.25
2023-05-15T08:02:17.048Z,12.98
2023-05-15T08:04:45.623Z,9.00
2023-05-15T08:07:13.764Z,8.25
2023-05-15T08:09:40.971Z,14.75
2023-05-15T08:12:20.614Z,10.80
2023-05-15T08:14:48.665Z,12.13
2023-05-15T08:17:15.952Z,8.18
2023-05-15T08:19:43.309Z,12.68
2023-05-15T08:22:11.850Z,11.65
2023-05-15T08:24:39.144Z,10.73
2023-05-15T08:27:06.620Z,10.65
2023-05-15T08:29:33.876Z,12.20
2023-05-15T08:32:01.062Z,15.55
2023-05-15T08:34:28.284Z,7.75
2023-05-15T08:36:55.867Z,7.50
2023-05-15T08:39:24.402Z,7.88
2023-05-15T08:41:52.235Z,11.18
2023-05-15T08:44:19.606Z,8.23
2023-05-15T08:46:46.847Z,14.75
2023-05-15T08:49:16.098Z,6.60
2023-05-15T08:51:43.315Z,6.67
2023-05-15T08:54:10.525Z,7.93
2023-05-15T08:56:39.053Z,12.10
2023-05-15T08:59:06.251Z,15.23
2023-05-15T09:01:33.561Z,9.13
2023-05-15T09:04:01.043Z,8.07
2023-05-15T09:06:28.346Z,7.28
2023-05-15T09:08:56.291Z,10.60
2023-05-15T09:11:23.500Z,13.48
2023-05-15T09:13:52.013Z,17.42
2023-05-15T09:16:21.074Z,15.88
2023-05-15T09:18:48.368Z,20.98
2023-05-15T09:21:22.574Z,13.88
2023-05-15T09:23:49.783Z,13.07
2023-05-15T09:26:16.978Z,20.05
2023-05-15T09:28:44.171Z,9.73
2023-05-15T09:31:12.660Z,11.55
2023-05-15T09:33:40.153Z,11.13
2023-05-15T09:36:07.682Z,45.67
2023-05-15T09:38:35.136Z,17.23
2023-05-15T09:41:02.783Z,24.70
2023-05-15T09:43:30.576Z,25.80
2023-05-15T09:45:58.019Z,32.20
2023-05-15T09:48:26.720Z,46.75
2023-05-15T09:50:54.438Z,24.02
2023-05-15T09:53:22.352Z,43.13
2023-05-15T09:55:49.586Z,26.30
2023-05-15T09:58:17.117Z,31.08
2023-05-15T10:00:48.657Z,22.05
2023-05-15T10:03:16.970Z,29.02
2023-05-15T10:05:45.625Z,22.98
2023-05-15T10:08:14.781Z,18.48
2023-05-15T10:10:42.214Z,22.23
2023-05-15T10:13:09.942Z,31.70
2023-05-15T10:15:37.257Z,26.15
2023-05-15T10:18:05.165Z,26.15
2023-05-15T10:20:32.536Z,25.67
2023-05-15T10:23:01.077Z,24.58
2023-05-15T10:25:29.026Z,24.52
2023-05-15T10:27:56.355Z,22.00
2023-05-15T10:30:24.002Z,22.55
2023-05-15T10:32:51.552Z,23.27
2023-05-15T10:35:18.889Z,23.85
2023-05-15T10:37:46.719Z,23.50
2023-05-15T10:40:15.757Z,19.73
2023-05-15T10:42:43.217Z,17.05
2023-05-15T10:45:10.680Z,15.95
2023-05-15T10:47:38.106Z,13.40
2023-05-15T10:50:05.670Z,17.90
2023-05-15T10:52:33.035Z,14.73
2023-05-15T10:55:00.490Z,15.05
2023-05-15T10:57:31.014Z,16.08
2023-05-15T10:59:58.233Z,15.75
2023-05-15T11:02:26.061Z,14.00
2023-05-15T11:04:56.865Z,13.30
2023-05-15T11:07:25.586Z,13.45
2023-05-15T11:09:52.940Z,13.63
2023-05-15T11:12:20.185Z,10.52
2023-05-15T11:15:02.312Z,10.40
2023-05-15T11:17:32.475Z,12.05
2023-05-15T11:20:00.039Z,10.48
2023-05-15T11:22:28.249Z,9.77
2023-05-15T11:24:55.820Z,10.30
2023-05-15T11:27:24.008Z,10.88
2023-05-15T11:32:26.952Z,361.98
2023-05-15T11:34:55.575Z,226.52
2023-05-15T11:37:22.755Z,185.05
2023-05-15T11:39:49.960Z,132.02
2023-05-15T11:42:17.199Z,64.85
2023-05-15T11:44:44.450Z,65.53
2023-05-15T11:47:11.758Z,68.55
2023-05-15T11:49:39.077Z,75.40
2023-05-15T11:52:07.784Z,82.43
2023-05-15T11:54:34.991Z,76.65
2023-05-15T11:57:02.207Z,73.50
2023-05-15T11:59:31.911Z,63.38
2023-05-15T12:01:59.210Z,74.65
2023-05-15T12:04:26.557Z,63.03
2023-05-15T12:06:53.898Z,60.13
2023-05-15T12:09:27.088Z,49.85
2023-05-15T12:11:54.508Z,46.95
2023-05-15T12:14:27.177Z,53.33
2023-05-15T12:16:54.474Z,50.50
2023-05-15T12:19:24.600Z,47.03
2023-05-15T12:24:20.697Z,43.45
2023-05-15T12:26:49.277Z,39.42
2023-05-15T12:29:16.499Z,29.88
2023-05-15T12:31:43.769Z,31.95
2023-05-15T12:34:11.252Z,27.92
2023-05-15T12:36:38.518Z,21.08
2023-05-15T12:39:05.795Z,17.58
2023-05-15T12:41:33.012Z,17.75
2023-05-15T12:44:01.519Z,18.92
2023-05-15T12:46:30.260Z,17.52
2023-05-15T12:48:58.693Z,18.88
2023-05-15T12:51:26.041Z,18.38
2023-05-15T12:53:53.479Z,17.83
2023-05-15T12:56:21.328Z,20.05
2023-05-15T12:58:48.709Z,17.13
2023-05-15T13:01:17.439Z,17.10
2023-05-15T13:03:45.305Z,16.53
2023-05-15T13:06:12.755Z,17.15
2023-05-15T13:08:40.442Z,14.90
2023-05-15T13:11:08.087Z,15.27
2023-05-15T13:13:44.958Z,16.42
2023-05-15T13:16:20.647Z,16.17
2023-05-15T13:18:47.982Z,16.60
2023-05-15T13:21:15.292Z,13.35
2023-05-15T13:23:42.465Z,15.57
2023-05-15T13:26:09.678Z,14.82
2023-05-15T13:28:36.867Z,12.68
2023-05-15T13:31:04.107Z,14.35
2023-05-15T13:33:33.892Z,14.55
2023-05-15T13:36:19.516Z,12.65
2023-05-15T13:38:46.757Z,12.52
2023-05-15T13:41:13.986Z,12.75
2023-05-15T13:43:41.179Z,10.50
2023-05-15T13:46:08.742Z,10.05
2023-05-15T13:48:37.235Z,11.52
2023-05-15T13:51:05.124Z,15.82
2023-05-15T13:53:32.329Z,13.27
2023-05-15T13:55:59.687Z,11.88
2023-05-15T13:58:27.044Z,11.05
2023-05-15T14:00:54.322Z,9.63
2023-05-15T14:03:21.660Z,10.55
2023-05-15T14:05:50.214Z,9.88
2023-05-15T14:08:17.601Z,9.75
2023-05-15T14:10:44.835Z,9.70
2023-05-15T14:13:12.024Z,9.23
2023-05-15T14:15:39.229Z,10.30
2023-05-15T14:18:06.642Z,9.48
2023-05-15T14:20:33.864Z,9.63
2023-05-15T14:23:02.389Z,10.32
2023-05-15T14:25:29.852Z,9.82
2023-05-15T14:27:57.157Z,9.88
2023-05-15T14:30:24.503Z,9.23
2023-05-15T14:32:51.961Z,9.60
2023-05-15T14:35:19.183Z,7.93
2023-05-15T14:37:46.407Z,8.90
2023-05-15T14:40:15.144Z,12.60
2023-05-15T14:42:42.400Z,8.93
2023-05-15T14:45:10.246Z,10.20
2023-05-15T14:47:37.602Z,7.60
2023-05-15T14:50:05.205Z,7.97
2023-05-15T14:52:32.389Z,8.07
2023-05-15T14:55:08.557Z,8.10
2023-05-15T14:57:38.487Z,10.25
2023-05-15T15:00:06.816Z,8.32
2023-05-15T15:02:34.420Z,8.57
2023-05-15T15:05:01.725Z,8.63
2023-05-15T15:07:29.290Z,7.45
2023-05-15T15:09:56.476Z,7.22
2023-05-15T15:12:23.654Z,7.65
2023-05-15T15:14:52.187Z,8.50
2023-05-15T15:17:19.401Z,7.63
2023-05-15T15:19:46.620Z,7.68
2023-05-15T15:22:13.984Z,7.15
2023-05-15T15:24:41.200Z,8.90
2023-05-15T15:27:08.449Z,7.35
2023-05-15T15:29:35.652Z,6.82
2023-05-15T15:32:04.413Z,7.93
2023-05-15T15:34:31.699Z,7.60
2023-05-15T15:36:58.901Z,7.80
2023-05-15T15:39:26.103Z,6.40
2023-05-15T15:41:54.300Z,7.72
2023-05-15T15:44:21.512Z,6.88
2023-05-15T15:46:48.722Z,6.55
2023-05-15T15:49:17.223Z,7.47
2023-05-15T15:51:44.515Z,6.95
2023-05-15T15:54:11.712Z,6.97
2023-05-15T15:56:39.285Z,7.07
2023-05-15T15:59:06.494Z,6.50
2023-05-15T16:01:33.722Z,6.75
2023-05-15T16:04:00.991Z,6.47
2023-05-15T16:06:29.602Z,6.72
2023-05-15T16:08:56.841Z,7.13
2023-05-15T16:11:24.361Z,6.93
2023-05-15T16:13:51.584Z,6.57
2023-05-15T16:16:18.849Z,6.60
2023-05-15T16:18:46.168Z,6.30
2023-05-15T16:21:13.487Z,6.40
2023-05-15T16:23:42.127Z,8.00
2023-05-15T16:26:09.486Z,7.80
2023-05-15T16:28:36.681Z,7.90
2023-05-15T16:31:04.018Z,7.80
2023-05-15T16:33:32.086Z,8.32
2023-05-15T16:35:59.275Z,8.93
2023-05-15T16:38:26.475Z,7.32
2023-05-15T16:40:54.955Z,7.70
2023-05-15T16:43:22.429Z,9.27
2023-05-15T16:45:49.640Z,7.53
2023-05-15T16:48:16.969Z,7.63
2023-05-15T16:50:44.226Z,7.68
2023-05-15T16:53:11.608Z,7.25
2023-05-15T16:55:38.851Z,7.18
2023-05-15T16:58:07.362Z,7.00
2023-05-15T17:00:34.557Z,6.78
2023-05-15T17:03:02.085Z,6.85
2023-05-15T17:05:29.508Z,6.82
2023-05-15T17:07:56.730Z,6.88
2023-05-15T17:10:24.096Z,6.55
2023-05-15T17:12:51.402Z,6.93
2023-05-15T17:15:19.897Z,6.50
2023-05-15T17:17:47.166Z,6.55
2023-05-15T17:20:15.103Z,8.13
2023-05-15T17:22:42.434Z,6.30
2023-05-15T17:25:09.739Z,6.82
2023-05-15T17:27:39.841Z,6.40
2023-05-15T17:30:07.744Z,6.13
2023-05-15T17:32:36.317Z,6.43
2023-05-15T17:35:03.546Z,5.93
2023-05-15T17:37:30.723Z,6.10
2023-05-15T17:39:57.976Z,5.80
2023-05-15T17:42:25.543Z,6.03
2023-05-15T17:44:52.736Z,6.30
2023-05-15T17:47:19.952Z,6.30
2023-05-15T17:49:48.540Z,6.47
2023-05-15T17:52:15.820Z,6.30
2023-05-15T17:54:43.075Z,6.95
2023-05-15T17:57:10.326Z,6.68
2023-05-15T17:59:37.594Z,6.60
2023-05-15T18:02:05.031Z,6.32
2023-05-15T18:04:32.291Z,5.72
2023-05-15T18:07:00.879Z,6.50
2023-05-15T18:09:28.122Z,6.32
2023-05-15T18:11:55.993Z,5.78
2023-05-15T18:14:23.219Z,6.95
2023-05-15T18:16:50.847Z,5.97
2023-05-15T18:19:18.270Z,5.40
2023-05-15T18:21:45.665Z,5.75
2023-05-15T18:24:14.215Z,5.63
2023-05-15T18:26:41.412Z,6.10
2023-05-15T18:29:08.784Z,6.30
2023-05-15T18:31:36.674Z,6.13
2023-05-15T18:34:03.891Z,6.20
2023-05-15T18:36:31.141Z,6.38
2023-05-15T18:38:58.382Z,6.35
2023-05-15T18:41:27.725Z,5.90
2023-05-15T18:43:54.930Z,6.82
2023-05-15T18:46:22.123Z,6.57
2023-05-15T18:48:49.393Z,6.72
2023-05-15T18:51:16.574Z,6.78
2023-05-15T18:53:43.777Z,5.90
2023-05-15T18:56:10.968Z,6.10
2023-05-15T18:58:39.460Z,6.07
2023-05-15T19:01:06.693Z,6.40
2023-05-15T19:03:33.946Z,7.20
2023-05-15T19:06:01.144Z,6.40
2023-05-15T19:08:28.366Z,6.55
2023-05-15T19:10:55.731Z,6.28
2023-05-15T19:13:22.940Z,6.20
2023-05-15T19:15:54.682Z,6.22
2023-05-15T19:18:21.888Z,6.60
2023-05-15T19:20:51.767Z,6.30
2023-05-15T19:23:20.406Z,6.43
2023-05-15T19:25:47.604Z,5.90
2023-05-15T19:28:15.043Z,6.20
2023-05-15T19:30:42.406Z,6.40
2023-05-15T19:33:12.674Z,6.13
2023-05-15T19:35:40.581Z,6.00
2023-05-15T19:38:07.749Z,5.80
2023-05-15T19:40:35.290Z,5.75
2023-05-15T19:43:02.618Z,6.20
2023-05-15T19:45:30.430Z,5.60
2023-05-15T19:47:58.867Z,5.57
2023-05-15T19:50:27.636Z,5.60
2023-05-15T19:52:54.962Z,5.90
2023-05-15T19:55:22.366Z,5.43
2023-05-15T19:57:49.716Z,5.85
2023-05-15T20:00:17.227Z,5.70
2023-05-15T20:02:44.505Z,5.65
2023-05-15T20:05:11.981Z,6.10
2023-05-15T20:07:40.495Z,5.75
2023-05-15T20:10:09.019Z,5.63
2023-05-15T20:12:36.232Z,8.07
2023-05-15T20:15:03.468Z,6.13
2023-05-15T20:17:30.742Z,5.55
2023-05-15T20:19:59.124Z,5.50
2023-05-15T20:22:26.366Z,5.78
2023-05-15T20:24:54.870Z,5.38
2023-05-15T20:27:22.126Z,5.97
2023-05-15T20:29:49.334Z,5.20
2023-05-15T20:32:16.618Z,5.68
2023-05-15T20:34:45.620Z,6.13
2023-05-15T20:37:13.597Z,6.10
2023-05-15T20:39:40.839Z,6.07
2023-05-15T20:42:09.380Z,5.70
2023-05-15T20:44:39.022Z,5.57
2023-05-15T20:47:06.281Z,5.85
2023-05-15T20:49:33.510Z,5.50
2023-05-15T20:52:01.101Z,5.95
2023-05-15T20:54:28.280Z,5.28
2023-05-15T20:56:55.457Z,5.63
2023-05-15T20:59:23.959Z,5.07
2023-05-15T21:01:51.167Z,5.72
2023-05-15T21:04:18.376Z,5.65
2023-05-15T21:06:45.933Z,5.63
2023-05-15T21:09:13.963Z,6.07
2023-05-15T21:11:41.150Z,5.10
2023-05-15T21:14:08.374Z,5.50
2023-05-15T21:16:36.889Z,5.72
2023-05-15T21:19:04.118Z,5.97
2023-05-15T21:21:31.844Z,5.68
2023-05-15T21:24:01.014Z,5.53
2023-05-15T21:26:28.337Z,5.37
2023-05-15T21:28:56.528Z,5.38
2023-05-15T21:31:23.847Z,4.88
2023-05-15T21:33:52.840Z,5.28
2023-05-15T21:36:20.124Z,5.47
2023-05-15T21:38:47.328Z,5.97
2023-05-15T21:41:14.590Z,5.35
2023-05-15T21:43:41.792Z,5.85
2023-05-15T21:46:09.034Z,5.45
2023-05-15T21:48:36.368Z,6.15
2023-05-15T21:51:04.938Z,6.35
2023-05-15T21:53:32.151Z,5.82
2023-05-15T21:55:59.542Z,5.65
2023-05-15T21:58:26.758Z,5.68
2023-05-15T22:00:53.963Z,6.00
2023-05-15T22:03:21.417Z,5.93
2023-05-15T22:05:49.902Z,5.72
2023-05-15T22:08:18.485Z,5.10
2023-05-15T22:10:45.778Z,5.30
2023-05-15T22:13:13.043Z,4.80
2023-05-15T22:15:40.323Z,5.22
2023-05-15T22:18:08.049Z,5.20
2023-05-15T22:20:35.991Z,5.72
2023-05-15T22:23:03.165Z,5.63
2023-05-15T22:25:31.849Z,5.20
2023-05-15T22:27:59.078Z,6.28
2023-05-15T22:30:26.406Z,4.85
2023-05-15T22:32:53.824Z,5.22
2023-05-15T22:35:21.280Z,5.40
2023-05-15T22:37:48.925Z,4.95
2023-05-15T22:40:16.202Z,5.40
2023-05-15T22:42:44.736Z,6.00
2023-05-15T22:45:12.230Z,5.63
2023-05-15T22:47:39.844Z,5.70
2023-05-15T22:50:08.093Z,4.80
2023-05-15T22:52:35.329Z,4.97
2023-05-15T22:55:02.541Z,5.68
2023-05-15T22:57:29.699Z,4.75
2023-05-15T22:59:58.216Z,4.82
2023-05-15T23:02:25.502Z,5.00
2023-05-15T23:04:52.717Z,5.97
2023-05-15T23:07:20.448Z,4.72
2023-05-15T23:09:47.646Z,4.70
2023-05-15T23:12:14.862Z,4.75
2023-05-15T23:14:42.083Z,4.55
2023-05-15T23:17:10.584Z,4.60
2023-05-15T23:19:37.771Z,5.00
2023-05-15T23:22:05.123Z,4.53
2023-05-15T23:24:32.336Z,4.82
2023-05-15T23:26:59.632Z,4.60
2023-05-15T23:29:26.816Z,4.95
2023-05-15T23:31:56.167Z,4.68
2023-05-15T23:34:24.753Z,4.65
2023-05-15T23:36:51.934Z,4.38
2023-05-15T23:39:19.101Z,4.63
2023-05-15T23:41:46.296Z,4.45
2023-05-15T23:44:13.491Z,4.80
2023-05-15T23:46:40.732Z,4.20
2023-05-15T23:49:07.978Z,4.50
2023-05-15T23:51:36.521Z,4.20
2023-05-15T23:54:03.762Z,4.40
2023-05-15T23:56:30.977Z,4.60
2023-05-15T23:58:58.164Z,4.22
